Time;durP1;ratioP1;P1;durP2;ratioP2;P2;SDS_P1;SDS_P2;PMS_P1;PMS_P2;Temp;Humidity;BMP_temperature;BMP_pressure;BME280_temperature;BME280_humidity;BME280_pressure;Samples;Min_cycle;Max_cycle;Signal;HPM_P1;HPM_P2
2021/06/15 00:01:59;;;;;;;11.90;7.07;;;;;;;;;;4425208;32;20303;-79
2021/06/15 00:04:24;;;;;;;13.02;6.35;;;;;;;;;;4423410;32;20758;-78
2021/06/15 00:06:49;;;;;;;11.50;6.85;;;;;;;;;;4437723;32;20535;-78
2021/06/15 00:09:14;;;;;;;7.73;5.50;;;;;;;;;;4437688;32;20157;-79
2021/06/15 00:11:39;;;;;;;11.13;6.40;;;;;;;;;;4437931;32;20248;-79
2021/06/15 00:14:04;;;;;;;11.07;5.80;;;;;;;;;;4425156;32;20272;-79
2021/06/15 00:16:30;;;;;;;11.73;6.68;;;;;;;;;;4438164;32;20168;-78
2021/06/15 00:18:55;;;;;;;12.07;5.93;;;;;;;;;;4439119;32;20503;-78
2021/06/15 00:21:20;;;;;;;10.07;5.85;;;;;;;;;;4423422;32;20165;-80
2021/06/15 00:23:45;;;;;;;11.17;6.87;;;;;;;;;;4439259;32;20197;-79
2021/06/15 00:26:11;;;;;;;12.23;5.70;;;;;;;;;;4437800;32;20631;-79
2021/06/15 00:28:36;;;;;;;11.35;6.50;;;;;;;;;;4438473;32;20182;-79
2021/06/15 00:31:02;;;;;;;11.10;6.80;;;;;;;;;;4424084;32;20172;-78
2021/06/15 00:33:27;;;;;;;11.00;6.80;;;;;;;;;;4423289;32;20188;-78
2021/06/15 00:35:52;;;;;;;14.00;6.90;;;;;;;;;;4439108;32;20192;-78
2021/06/15 00:38:17;;;;;;;12.95;6.43;;;;;;;;;;4437412;32;20213;-78
2021/06/15 00:40:43;;;;;;;13.40;6.25;;;;;;;;;;4438768;32;20577;-78
2021/06/15 00:43:08;;;;;;;10.40;5.85;;;;;;;;;;4436943;32;20221;-79
2021/06/15 00:45:33;;;;;;;9.85;6.10;;;;;;;;;;4438496;32;20129;-77
2021/06/15 00:47:59;;;;;;;8.80;5.82;;;;;;;;;;4437612;32;20191;-78
2021/06/15 00:50:25;;;;;;;10.45;5.97;;;;;;;;;;4422933;32;20618;-79
2021/06/15 00:52:52;;;;;;;11.32;5.80;;;;;;;;;;4422777;32;20188;-79
2021/06/15 00:55:17;;;;;;;15.25;7.05;;;;;;;;;;4439409;32;20142;-78
2021/06/15 00:57:43;;;;;;;9.57;5.95;;;;;;;;;;4437123;32;20420;-79
2021/06/15 01:00:08;;;;;;;13.05;6.62;;;;;;;;;;4422877;32;20256;-79
2021/06/15 01:02:36;;;;;;;9.00;6.50;;;;;;;;;;4436645;32;20142;-79
2021/06/15 01:05:03;;;;;;;10.73;6.28;;;;;;;;;;4437016;32;20149;-79
2021/06/15 01:07:44;;;;;;;10.10;5.85;;;;;;;;;;4422589;32;20583;-80
2021/06/15 01:10:30;;;;;;;10.20;5.57;;;;;;;;;;4436703;32;20137;-78
2021/06/15 01:13:07;;;;;;;10.68;5.68;;;;;;;;;;4435788;32;20195;-78
2021/06/15 01:15:36;;;;;;;10.77;5.62;;;;;;;;;;4436350;32;20164;-78
2021/06/15 01:18:09;;;;;;;10.48;5.78;;;;;;;;;;4437880;32;20172;-78
2021/06/15 01:20:40;;;;;;;8.38;5.07;;;;;;;;;;4423958;32;20169;-77
2021/06/15 01:23:23;;;;;;;11.43;5.45;;;;;;;;;;4422891;32;20598;-78
2021/06/15 01:26:01;;;;;;;10.90;4.65;;;;;;;;;;4422415;32;20602;-78
2021/06/15 01:28:29;;;;;;;7.78;4.90;;;;;;;;;;4438576;32;20205;-78
2021/06/15 01:31:00;;;;;;;7.87;4.53;;;;;;;;;;4437276;32;20481;-78
2021/06/15 01:33:25;;;;;;;6.55;4.50;;;;;;;;;;4436165;32;20157;-78
2021/06/15 01:35:52;;;;;;;11.07;4.50;;;;;;;;;;4436132;32;20585;-78
2021/06/15 01:38:18;;;;;;;10.75;4.68;;;;;;;;;;4422442;32;20165;-78
2021/06/15 01:41:00;;;;;;;7.20;3.85;;;;;;;;;;4437661;32;20565;-77
2021/06/15 01:43:30;;;;;;;9.13;4.57;;;;;;;;;;4437503;32;20523;-77
2021/06/15 01:45:56;;;;;;;7.47;4.35;;;;;;;;;;4423641;32;20162;-77
2021/06/15 01:48:33;;;;;;;10.15;4.20;;;;;;;;;;4436448;32;20208;-78
2021/06/15 01:51:00;;;;;;;7.45;3.75;;;;;;;;;;4437601;32;20534;-78
2021/06/15 01:53:25;;;;;;;7.20;3.70;;;;;;;;;;4435654;32;20153;-78
2021/06/15 01:55:51;;;;;;;8.65;4.07;;;;;;;;;;4436343;32;20197;-77
2021/06/15 01:58:17;;;;;;;10.57;4.30;;;;;;;;;;4435843;32;20152;-77
2021/06/15 02:00:43;;;;;;;9.13;4.60;;;;;;;;;;4436263;32;20492;-77
2021/06/15 02:03:10;;;;;;;7.95;4.35;;;;;;;;;;4436871;32;20130;-78
2021/06/15 02:05:37;;;;;;;8.65;4.25;;;;;;;;;;4435462;32;20134;-77
2021/06/15 02:08:04;;;;;;;11.00;4.82;;;;;;;;;;4435682;32;20141;-77
2021/06/15 02:10:29;;;;;;;10.65;4.45;;;;;;;;;;4435534;32;20570;-78
2021/06/15 02:12:55;;;;;;;8.98;4.05;;;;;;;;;;4435535;32;20150;-77
2021/06/15 02:15:22;;;;;;;7.57;4.03;;;;;;;;;;4423251;32;20188;-77
2021/06/15 02:17:48;;;;;;;7.70;3.37;;;;;;;;;;4435935;32;20175;-77
2021/06/15 02:20:15;;;;;;;6.18;3.20;;;;;;;;;;4435732;32;20160;-76
2021/06/15 02:22:45;;;;;;;6.80;3.20;;;;;;;;;;4435896;32;20165;-78
2021/06/15 02:25:10;;;;;;;7.68;3.12;;;;;;;;;;4437989;32;20133;-78
2021/06/15 02:27:36;;;;;;;5.50;3.00;;;;;;;;;;4421326;32;20187;-78
2021/06/15 02:30:01;;;;;;;7.40;2.92;;;;;;;;;;4435422;32;20133;-78
2021/06/15 02:32:33;;;;;;;5.28;2.33;;;;;;;;;;4421387;32;20161;-77
2021/06/15 02:35:00;;;;;;;4.03;2.08;;;;;;;;;;4436137;32;20141;-77
2021/06/15 02:37:46;;;;;;;5.93;2.45;;;;;;;;;;4423258;32;20645;-78
2021/06/15 02:40:11;;;;;;;3.87;2.10;;;;;;;;;;4421267;32;20199;-77
2021/06/15 02:42:41;;;;;;;4.68;2.10;;;;;;;;;;4435856;32;20547;-78
2021/06/15 02:45:07;;;;;;;4.93;2.10;;;;;;;;;;4423069;32;20502;-78
2021/06/15 02:47:34;;;;;;;3.92;2.05;;;;;;;;;;4436876;32;20172;-78
2021/06/15 02:50:00;;;;;;;5.47;2.10;;;;;;;;;;4435327;32;20160;-78
2021/06/15 02:52:35;;;;;;;3.75;1.90;;;;;;;;;;4435905;32;20174;-78
2021/06/15 02:55:02;;;;;;;4.03;1.98;;;;;;;;;;4421426;32;20160;-78
2021/06/15 02:57:28;;;;;;;5.50;1.77;;;;;;;;;;4437497;32;20133;-77
2021/06/15 02:59:54;;;;;;;4.93;1.90;;;;;;;;;;4437117;32;20204;-77
2021/06/15 03:02:19;;;;;;;5.28;1.90;;;;;;;;;;4435900;32;20130;-78
2021/06/15 03:04:46;;;;;;;3.43;1.90;;;;;;;;;;4436404;32;20198;-77
2021/06/15 03:07:12;;;;;;;2.80;1.52;;;;;;;;;;4436986;32;20233;-78
2021/06/15 03:09:37;;;;;;;3.62;1.70;;;;;;;;;;4437079;32;20183;-78
2021/06/15 03:12:10;;;;;;;3.80;1.52;;;;;;;;;;4437272;32;20627;-78
2021/06/15 03:14:37;;;;;;;3.30;1.50;;;;;;;;;;4422525;32;20188;-78
2021/06/15 03:17:04;;;;;;;3.85;1.87;;;;;;;;;;4439535;32;20191;-77
2021/06/15 03:19:32;;;;;;;2.80;1.70;;;;;;;;;;4424005;32;20168;-77
2021/06/15 03:22:10;;;;;;;3.70;1.37;;;;;;;;;;4440297;32;20134;-77
2021/06/15 03:24:39;;;;;;;2.42;1.70;;;;;;;;;;4425655;32;20165;-77
2021/06/15 03:27:06;;;;;;;3.37;1.50;;;;;;;;;;4438473;32;20130;-77
2021/06/15 03:29:34;;;;;;;3.40;1.48;;;;;;;;;;4439821;32;20197;-77
2021/06/15 03:32:02;;;;;;;4.00;1.52;;;;;;;;;;4439662;32;20134;-77
2021/06/15 03:34:29;;;;;;;2.78;1.55;;;;;;;;;;4437753;32;20622;-77
2021/06/15 03:36:55;;;;;;;5.20;1.70;;;;;;;;;;4425455;32;20169;-78
2021/06/15 03:39:22;;;;;;;3.72;1.30;;;;;;;;;;4439408;32;20149;-78
2021/06/15 03:41:50;;;;;;;3.78;1.12;;;;;;;;;;4438730;32;20161;-78
2021/06/15 03:44:18;;;;;;;7.25;1.60;;;;;;;;;;4437516;32;20205;-76
2021/06/15 03:46:44;;;;;;;4.00;1.30;;;;;;;;;;4423596;32;20235;-76
2021/06/15 03:49:11;;;;;;;3.75;1.12;;;;;;;;;;4439319;32;20598;-77
2021/06/15 03:51:39;;;;;;;3.78;1.15;;;;;;;;;;4437709;32;20161;-77
2021/06/15 03:54:10;;;;;;;2.20;1.10;;;;;;;;;;4439654;32;20142;-77
2021/06/15 03:56:38;;;;;;;3.08;1.30;;;;;;;;;;4439927;32;20200;-77
2021/06/15 03:59:05;;;;;;;3.08;1.10;;;;;;;;;;4423391;32;20200;-78
2021/06/15 04:01:32;;;;;;;6.12;1.50;;;;;;;;;;4424977;32;20502;-78
2021/06/15 04:03:59;;;;;;;6.05;1.50;;;;;;;;;;4439412;32;20137;-78
2021/06/15 04:06:24;;;;;;;2.60;1.35;;;;;;;;;;4423201;32;20157;-77
2021/06/15 04:08:50;;;;;;;4.00;1.33;;;;;;;;;;4438496;32;20190;-78
2021/06/15 04:11:17;;;;;;;5.95;1.17;;;;;;;;;;4437191;32;20157;-77
2021/06/15 04:13:42;;;;;;;3.50;1.10;;;;;;;;;;4423072;32;20290;-77
2021/06/15 04:16:10;;;;;;;2.75;1.10;;;;;;;;;;4437217;32;20134;-77
2021/06/15 04:18:35;;;;;;;3.90;1.27;;;;;;;;;;4439184;32;20212;-78
2021/06/15 04:21:02;;;;;;;4.28;1.20;;;;;;;;;;4438931;32;20168;-78
2021/06/15 04:23:30;;;;;;;4.15;1.08;;;;;;;;;;4439159;32;20164;-78
2021/06/15 04:25:56;;;;;;;4.07;1.17;;;;;;;;;;4437310;32;20201;-78
2021/06/15 04:28:21;;;;;;;5.40;1.15;;;;;;;;;;4438263;32;20137;-77
2021/06/15 04:30:46;;;;;;;3.72;1.02;;;;;;;;;;4436880;32;20142;-77
2021/06/15 04:33:14;;;;;;;4.03;1.30;;;;;;;;;;4437235;32;20133;-77
2021/06/15 04:35:41;;;;;;;2.03;1.00;;;;;;;;;;4424313;32;20166;-78
2021/06/15 04:38:07;;;;;;;3.83;1.20;;;;;;;;;;4437189;32;20153;-78
2021/06/15 04:40:38;;;;;;;3.65;1.35;;;;;;;;;;4439147;32;20184;-78
2021/06/15 04:43:09;;;;;;;4.03;1.10;;;;;;;;;;4437339;32;20613;-78
2021/06/15 04:45:38;;;;;;;3.47;1.02;;;;;;;;;;4436267;32;20130;-78
2021/06/15 04:48:08;;;;;;;4.53;1.20;;;;;;;;;;4437855;32;20196;-77
2021/06/15 04:50:33;;;;;;;7.03;1.60;;;;;;;;;;4422485;32;20562;-77
2021/06/15 04:53:00;;;;;;;6.20;1.60;;;;;;;;;;4436913;32;20195;-77
2021/06/15 04:55:27;;;;;;;7.35;1.95;;;;;;;;;;4437698;32;20547;-77
2021/06/15 04:57:54;;;;;;;5.93;1.50;;;;;;;;;;4422460;32;20157;-78
2021/06/15 05:00:24;;;;;;;5.50;1.20;;;;;;;;;;4438731;32;20165;-78
2021/06/15 05:02:49;;;;;;;4.57;1.20;;;;;;;;;;4422333;32;20169;-78
2021/06/15 05:05:15;;;;;;;5.70;1.65;;;;;;;;;;4436298;32;20149;-78
2021/06/15 05:07:40;;;;;;;6.50;1.50;;;;;;;;;;4436333;32;20546;-78
2021/06/15 05:10:06;;;;;;;6.35;1.52;;;;;;;;;;4422298;32;20637;-80
2021/06/15 05:12:34;;;;;;;5.20;1.50;;;;;;;;;;4436585;32;20492;-79
2021/06/15 05:15:03;;;;;;;4.80;1.40;;;;;;;;;;4422202;32;20286;-78
2021/06/15 05:17:29;;;;;;;4.95;1.50;;;;;;;;;;4436677;32;20132;-78
2021/06/15 05:19:54;;;;;;;5.40;1.50;;;;;;;;;;4437264;32;20160;-78
2021/06/15 05:22:30;;;;;;;5.85;1.60;;;;;;;;;;4436853;32;20638;-78
2021/06/15 05:24:56;;;;;;;5.05;1.48;;;;;;;;;;4436066;32;20133;-78
2021/06/15 05:27:24;;;;;;;6.07;1.40;;;;;;;;;;4436201;32;20235;-78
2021/06/15 05:29:50;;;;;;;5.68;1.37;;;;;;;;;;4437126;32;20156;-78
2021/06/15 05:32:15;;;;;;;3.80;1.25;;;;;;;;;;4422265;32;20161;-78
2021/06/15 05:34:40;;;;;;;5.55;1.40;;;;;;;;;;4436993;32;20141;-79
2021/06/15 05:37:06;;;;;;;5.28;1.50;;;;;;;;;;4423261;32;20597;-79
2021/06/15 05:39:32;;;;;;;6.50;2.70;;;;;;;;;;4421648;32;20187;-79
2021/06/15 05:41:57;;;;;;;4.55;1.90;;;;;;;;;;4435988;32;20160;-77
2021/06/15 05:44:22;;;;;;;2.72;1.40;;;;;;;;;;4437376;32;20480;-79
2021/06/15 05:46:48;;;;;;;2.90;1.15;;;;;;;;;;4435715;32;20232;-79
2021/06/15 05:49:13;;;;;;;3.65;1.70;;;;;;;;;;4436287;32;20185;-77
2021/06/15 05:51:38;;;;;;;9.30;2.05;;;;;;;;;;4437163;32;20149;-77
2021/06/15 05:54:04;;;;;;;5.37;1.50;;;;;;;;;;4437442;32;20199;-79
2021/06/15 05:56:29;;;;;;;3.83;1.48;;;;;;;;;;4436384;32;20160;-79
2021/06/15 05:58:54;;;;;;;3.72;1.40;;;;;;;;;;4437388;32;20172;-78
2021/06/15 06:01:20;;;;;;;4.72;1.40;;;;;;;;;;4436463;32;20175;-77
2021/06/15 06:03:51;;;;;;;2.45;1.20;;;;;;;;;;4436312;32;20221;-77
2021/06/15 06:09:00;;;;;;;3.33;1.27;;;;;;;;;;4435774;32;20171;-78
2021/06/15 06:11:25;;;;;;;4.78;1.33;;;;;;;;;;4435426;32;20767;-80
2021/06/15 06:13:53;;;;;;;5.87;1.83;;;;;;;;;;4435808;32;20523;-77
2021/06/15 06:16:18;;;;;;;3.92;1.10;;;;;;;;;;4435022;32;20224;-77
2021/06/15 06:18:44;;;;;;;8.27;1.63;;;;;;;;;;4436902;32;20168;-78
2021/06/15 06:21:11;;;;;;;7.85;1.30;;;;;;;;;;4437527;32;20626;-78
2021/06/15 06:23:36;;;;;;;8.13;1.15;;;;;;;;;;4435273;32;20141;-78
2021/06/15 06:26:02;;;;;;;5.80;1.75;;;;;;;;;;4436203;32;20221;-79
2021/06/15 06:28:27;;;;;;;4.03;1.10;;;;;;;;;;4435822;32;20138;-79
2021/06/15 06:30:52;;;;;;;7.20;1.20;;;;;;;;;;4417811;32;20224;-77
2021/06/15 06:33:17;;;;;;;6.40;1.17;;;;;;;;;;4421788;32;20215;-77
2021/06/15 06:35:42;;;;;;;5.22;1.27;;;;;;;;;;4434879;32;20237;-77
2021/06/15 06:38:07;;;;;;;5.35;1.10;;;;;;;;;;4435683;32;20131;-77
2021/06/15 06:40:33;;;;;;;3.73;1.07;;;;;;;;;;4421683;32;20204;-79
2021/06/15 06:42:58;;;;;;;3.15;1.00;;;;;;;;;;4436238;32;20225;-77
2021/06/15 06:45:24;;;;;;;4.55;1.12;;;;;;;;;;4420709;32;20169;-78
2021/06/15 06:47:49;;;;;;;4.35;1.00;;;;;;;;;;4421041;32;20188;-78
2021/06/15 06:50:14;;;;;;;6.82;1.17;;;;;;;;;;4436465;32;20582;-78
2021/06/15 06:52:39;;;;;;;5.35;1.10;;;;;;;;;;4425407;32;20200;-78
2021/06/15 06:55:05;;;;;;;4.97;1.10;;;;;;;;;;4439777;32;20145;-76
2021/06/15 06:57:30;;;;;;;4.28;1.30;;;;;;;;;;4438239;32;20251;-79
2021/06/15 06:59:56;;;;;;;6.28;0.82;;;;;;;;;;4437994;32;20487;-77
2021/06/15 07:02:21;;;;;;;11.35;2.97;;;;;;;;;;4438030;32;20690;-78
2021/06/15 07:04:46;;;;;;;8.10;1.52;;;;;;;;;;4423802;32;20252;-76
2021/06/15 07:07:11;;;;;;;5.62;1.27;;;;;;;;;;4438330;32;20161;-78
2021/06/15 07:09:36;;;;;;;3.58;1.10;;;;;;;;;;4438851;32;20163;-78
2021/06/15 07:12:02;;;;;;;5.37;1.30;;;;;;;;;;4425679;32;20484;-77
2021/06/15 07:14:27;;;;;;;6.43;1.10;;;;;;;;;;4425681;32;20546;-77
2021/06/15 07:16:52;;;;;;;6.12;1.50;;;;;;;;;;4425576;32;20567;-78
2021/06/15 07:19:17;;;;;;;4.57;1.20;;;;;;;;;;4437746;32;20255;-77
2021/06/15 07:21:43;;;;;;;4.05;1.10;;;;;;;;;;4423719;32;20353;-78
2021/06/15 07:24:08;;;;;;;6.57;1.33;;;;;;;;;;4437939;32;20217;-77
2021/06/15 07:26:33;;;;;;;5.23;1.43;;;;;;;;;;4423615;32;20189;-78
2021/06/15 07:28:59;;;;;;;5.55;1.10;;;;;;;;;;4424591;32;20686;-77
2021/06/15 07:31:25;;;;;;;6.60;1.60;;;;;;;;;;4439166;32;20205;-77
2021/06/15 07:33:50;;;;;;;5.55;1.20;;;;;;;;;;4437534;32;20160;-77
2021/06/15 07:36:15;;;;;;;4.37;1.13;;;;;;;;;;4437707;32;20146;-77
2021/06/15 07:38:40;;;;;;;4.43;1.03;;;;;;;;;;4437789;32;20241;-77
2021/06/15 07:41:05;;;;;;;4.07;1.20;;;;;;;;;;4439244;32;20251;-74
2021/06/15 07:43:32;;;;;;;6.57;1.30;;;;;;;;;;4423858;32;20228;-76
2021/06/15 07:45:57;;;;;;;8.00;1.50;;;;;;;;;;4424256;32;20256;-77
2021/06/15 07:48:22;;;;;;;5.18;1.23;;;;;;;;;;4439023;32;20434;-76
2021/06/15 07:50:47;;;;;;;6.85;1.40;;;;;;;;;;4437517;32;20130;-76
2021/06/15 07:53:12;;;;;;;6.30;1.30;;;;;;;;;;4436989;32;20255;-77
2021/06/15 07:55:37;;;;;;;5.65;1.20;;;;;;;;;;4437370;32;20134;-76
2021/06/15 07:58:03;;;;;;;4.97;1.17;;;;;;;;;;4438401;32;20192;-77
2021/06/15 08:00:28;;;;;;;4.07;0.93;;;;;;;;;;4422899;32;20614;-76
2021/06/15 08:02:54;;;;;;;5.18;1.60;;;;;;;;;;4438094;32;20428;-76
2021/06/15 08:05:19;;;;;;;3.65;1.23;;;;;;;;;;4438773;32;20142;-77
2021/06/15 08:07:48;;;;;;;5.87;1.48;;;;;;;;;;4438852;32;20190;-79
2021/06/15 08:10:15;;;;;;;6.45;1.50;;;;;;;;;;4423068;32;20262;-78
2021/06/15 08:12:41;;;;;;;6.90;1.40;;;;;;;;;;4438377;32;20146;-77
2021/06/15 08:15:06;;;;;;;7.82;1.92;;;;;;;;;;4437539;32;20554;-77
2021/06/15 08:17:31;;;;;;;7.50;1.40;;;;;;;;;;4438831;32;20176;-77
2021/06/15 08:19:56;;;;;;;6.17;1.73;;;;;;;;;;4436875;32;20164;-76
2021/06/15 08:22:22;;;;;;;6.50;1.65;;;;;;;;;;4437406;32;20228;-76
2021/06/15 08:24:47;;;;;;;6.03;1.73;;;;;;;;;;4438751;32;20555;-75
2021/06/15 08:27:12;;;;;;;6.47;1.70;;;;;;;;;;4422938;32;20350;-76
2021/06/15 08:29:37;;;;;;;7.57;1.90;;;;;;;;;;4437657;32;20492;-75
2021/06/15 08:32:03;;;;;;;4.22;1.55;;;;;;;;;;4438256;32;20272;-77
2021/06/15 08:34:28;;;;;;;4.72;1.37;;;;;;;;;;4437041;32;20159;-75
2021/06/15 08:36:54;;;;;;;11.65;1.60;;;;;;;;;;4438073;32;20141;-77
2021/06/15 08:39:19;;;;;;;6.82;1.80;;;;;;;;;;4437180;32;20150;-78
2021/06/15 08:41:45;;;;;;;4.70;1.50;;;;;;;;;;4438383;32;20186;-78
2021/06/15 08:44:10;;;;;;;4.37;1.60;;;;;;;;;;4437084;32;20197;-76
2021/06/15 08:46:36;;;;;;;6.50;1.65;;;;;;;;;;4436972;32;20138;-77
2021/06/15 08:49:02;;;;;;;4.72;1.45;;;;;;;;;;4436741;32;20126;-77
2021/06/15 08:51:27;;;;;;;6.10;1.90;;;;;;;;;;4436389;32;20157;-77
2021/06/15 08:53:53;;;;;;;7.82;1.70;;;;;;;;;;4436723;32;20193;-78
2021/06/15 08:56:18;;;;;;;7.28;1.65;;;;;;;;;;4436243;32;20146;-77
2021/06/15 08:58:52;;;;;;;5.05;1.55;;;;;;;;;;4437948;32;20180;-76
2021/06/15 09:01:17;;;;;;;5.75;1.70;;;;;;;;;;4437335;32;20137;-77
2021/06/15 09:03:44;;;;;;;5.60;2.00;;;;;;;;;;4437765;32;20188;-75
2021/06/15 09:06:09;;;;;;;6.12;1.70;;;;;;;;;;4438092;32;20348;-75
2021/06/15 09:08:54;;;;;;;6.97;1.60;;;;;;;;;;4421665;32;20591;-76
2021/06/15 09:11:20;;;;;;;7.25;1.83;;;;;;;;;;4436213;32;20204;-76
2021/06/15 09:13:47;;;;;;;5.10;1.35;;;;;;;;;;4423171;32;20211;-77
2021/06/15 09:16:18;;;;;;;4.35;1.70;;;;;;;;;;4435962;32;20546;-77
2021/06/15 09:18:44;;;;;;;7.50;1.80;;;;;;;;;;4436081;32;20265;-76
2021/06/15 09:21:09;;;;;;;8.00;1.50;;;;;;;;;;4438114;32;20137;-76
2021/06/15 09:23:35;;;;;;;9.00;1.80;;;;;;;;;;4433252;32;20213;-77
2021/06/15 09:26:01;;;;;;;5.90;1.35;;;;;;;;;;4419989;32;20661;-75
2021/06/15 09:28:26;;;;;;;7.20;1.73;;;;;;;;;;4435338;32;20134;-77
2021/06/15 09:31:02;;;;;;;6.35;1.80;;;;;;;;;;4435164;32;20450;-76
2021/06/15 09:33:39;;;;;;;7.87;1.75;;;;;;;;;;4421349;32;20236;-74
2021/06/15 09:36:06;;;;;;;6.68;1.83;;;;;;;;;;4415590;32;20239;-76
2021/06/15 09:38:32;;;;;;;7.68;2.00;;;;;;;;;;4436504;32;20171;-76
2021/06/15 09:40:58;;;;;;;6.50;2.10;;;;;;;;;;4421476;32;20153;-76
2021/06/15 09:43:23;;;;;;;7.40;2.00;;;;;;;;;;4435163;32;21514;-76
2021/06/15 09:45:48;;;;;;;6.47;1.75;;;;;;;;;;4437453;32;20504;-75
2021/06/15 09:48:23;;;;;;;4.15;1.60;;;;;;;;;;4436059;32;20162;-76
2021/06/15 09:50:49;;;;;;;5.97;2.22;;;;;;;;;;4420996;32;20156;-76
2021/06/15 09:53:29;;;;;;;5.87;1.73;;;;;;;;;;4435150;32;20211;-77
2021/06/15 09:55:56;;;;;;;8.02;1.87;;;;;;;;;;4422477;32;20184;-76
2021/06/15 09:58:41;;;;;;;5.68;1.77;;;;;;;;;;4435933;32;20212;-76
2021/06/15 10:01:06;;;;;;;4.32;1.67;;;;;;;;;;4435937;32;20248;-77
2021/06/15 10:03:31;;;;;;;6.35;2.40;;;;;;;;;;4435978;32;20133;-77
2021/06/15 10:05:56;;;;;;;6.97;2.08;;;;;;;;;;4436834;32;20153;-74
2021/06/15 10:08:39;;;;;;;10.33;2.50;;;;;;;;;;4434578;32;20133;-75
2021/06/15 10:11:05;;;;;;;6.62;2.35;;;;;;;;;;4421131;32;20256;-77
2021/06/15 10:13:30;;;;;;;8.80;2.40;;;;;;;;;;4435358;32;20478;-76
2021/06/15 10:15:55;;;;;;;8.85;2.37;;;;;;;;;;4436601;32;20164;-78
2021/06/15 10:18:21;;;;;;;8.07;2.40;;;;;;;;;;4436914;32;20145;-77
2021/06/15 10:20:46;;;;;;;7.87;2.50;;;;;;;;;;4436125;32;20137;-78
2021/06/15 10:23:11;;;;;;;7.57;2.43;;;;;;;;;;4437137;32;20198;-77
2021/06/15 10:25:36;;;;;;;8.10;2.25;;;;;;;;;;4436601;32;20475;-78
2021/06/15 10:28:11;;;;;;;8.45;1.92;;;;;;;;;;4434177;32;20129;-78
2021/06/15 10:30:37;;;;;;;9.07;2.30;;;;;;;;;;4433970;32;20172;-74
2021/06/15 10:33:11;;;;;;;9.27;2.40;;;;;;;;;;4422763;32;20153;-78
2021/06/15 10:35:47;;;;;;;7.55;2.50;;;;;;;;;;4420088;32;20658;-75
2021/06/15 10:38:24;;;;;;;6.60;2.05;;;;;;;;;;4417876;32;20161;-77
2021/06/15 10:40:50;;;;;;;10.30;2.60;;;;;;;;;;4426834;32;20574;-78
2021/06/15 10:43:21;;;;;;;8.70;2.42;;;;;;;;;;4407252;32;20501;-78
2021/06/15 10:45:53;;;;;;;7.68;2.30;;;;;;;;;;4426492;32;20173;-78
2021/06/15 10:48:20;;;;;;;8.57;2.45;;;;;;;;;;4422291;32;20196;-79
2021/06/15 10:50:50;;;;;;;9.18;2.30;;;;;;;;;;4422018;32;20665;-79
2021/06/15 10:53:17;;;;;;;7.12;2.20;;;;;;;;;;4433584;32;20152;-77
2021/06/15 10:55:48;;;;;;;6.12;2.03;;;;;;;;;;4421279;32;20185;-78
2021/06/15 10:58:13;;;;;;;8.05;2.03;;;;;;;;;;4428952;32;20154;-79
2021/06/15 11:00:43;;;;;;;9.88;2.37;;;;;;;;;;4435457;32;20212;-79
2021/06/15 11:03:17;;;;;;;6.32;2.22;;;;;;;;;;4405076;32;20210;-80
2021/06/15 11:05:45;;;;;;;6.50;2.03;;;;;;;;;;4425827;32;20168;-79
2021/06/15 11:08:13;;;;;;;5.50;2.10;;;;;;;;;;4420021;32;20184;-79
2021/06/15 11:10:45;;;;;;;9.10;2.10;;;;;;;;;;4434132;32;20134;-79
2021/06/15 11:13:10;;;;;;;8.73;2.30;;;;;;;;;;4433602;32;20245;-78
2021/06/15 11:15:35;;;;;;;7.70;2.50;;;;;;;;;;4420309;32;20157;-78
2021/06/15 11:18:12;;;;;;;6.07;2.10;;;;;;;;;;4435739;32;20251;-78
2021/06/15 11:20:40;;;;;;;5.32;2.10;;;;;;;;;;4431555;32;20125;-79
2021/06/15 11:23:09;;;;;;;6.53;2.03;;;;;;;;;;4417711;32;20661;-78
2021/06/15 11:25:44;;;;;;;9.38;2.28;;;;;;;;;;4431054;32;20165;-78
2021/06/15 11:28:28;;;;;;;6.72;1.75;;;;;;;;;;4420056;32;20318;-79
2021/06/15 11:31:13;;;;;;;7.97;2.25;;;;;;;;;;4433913;32;20134;-78
2021/06/15 11:33:57;;;;;;;6.47;2.17;;;;;;;;;;4434029;32;20187;-79
2021/06/15 11:36:38;;;;;;;8.15;2.12;;;;;;;;;;4421628;32;20154;-78
2021/06/15 11:39:22;;;;;;;5.28;1.77;;;;;;;;;;4427321;32;20203;-78
2021/06/15 11:42:06;;;;;;;6.40;1.58;;;;;;;;;;4429684;32;20597;-78
2021/06/15 11:44:46;;;;;;;5.90;1.70;;;;;;;;;;4420946;32;20184;-79
2021/06/15 11:47:41;;;;;;;7.95;2.25;;;;;;;;;;4421218;32;20160;-77
2021/06/15 11:50:06;;;;;;;5.78;2.03;;;;;;;;;;4403180;32;20257;-79
2021/06/15 11:52:32;;;;;;;5.40;1.87;;;;;;;;;;4429786;32;20153;-79
2021/06/15 11:54:58;;;;;;;9.35;2.17;;;;;;;;;;4436942;32;20294;-79
2021/06/15 11:57:23;;;;;;;6.57;2.10;;;;;;;;;;4422081;32;20166;-78
2021/06/15 11:59:48;;;;;;;6.05;1.90;;;;;;;;;;4436768;32;20220;-79
2021/06/15 12:02:17;;;;;;;6.95;2.42;;;;;;;;;;4422886;32;20215;-80
2021/06/15 12:05:01;;;;;;;7.43;2.33;;;;;;;;;;4422626;32;20310;-79
2021/06/15 12:07:26;;;;;;;5.03;1.98;;;;;;;;;;4424174;32;20180;-79
2021/06/15 12:10:05;;;;;;;6.00;1.90;;;;;;;;;;4428115;32;20158;-81
2021/06/15 12:12:30;;;;;;;6.80;1.95;;;;;;;;;;4437126;32;20302;-82
2021/06/15 12:14:55;;;;;;;7.80;2.03;;;;;;;;;;4437314;32;20524;-81
2021/06/15 12:17:20;;;;;;;7.40;2.27;;;;;;;;;;4436183;32;20253;-82
2021/06/15 12:19:46;;;;;;;6.12;1.60;;;;;;;;;;4423047;32;20295;-81
2021/06/15 12:22:14;;;;;;;6.72;2.00;;;;;;;;;;4412015;32;20232;-82
2021/06/15 12:24:46;;;;;;;6.95;1.87;;;;;;;;;;4408094;32;20505;-80
2021/06/15 12:27:21;;;;;;;6.32;2.00;;;;;;;;;;4422595;32;20292;-81
2021/06/15 12:29:46;;;;;;;6.50;2.10;;;;;;;;;;4438037;32;20134;-80
2021/06/15 12:32:11;;;;;;;7.75;2.35;;;;;;;;;;4437349;32;20168;-81
2021/06/15 12:34:36;;;;;;;6.17;1.90;;;;;;;;;;4422169;32;20165;-80
2021/06/15 12:37:04;;;;;;;6.67;1.90;;;;;;;;;;4435641;32;20228;-81
2021/06/15 12:39:33;;;;;;;5.43;1.77;;;;;;;;;;4435278;32;20259;-80
2021/06/15 12:41:59;;;;;;;8.27;2.15;;;;;;;;;;4436932;32;20240;-82
2021/06/15 12:44:26;;;;;;;5.62;1.65;;;;;;;;;;4436109;32;20465;-80
2021/06/15 12:46:57;;;;;;;7.70;1.95;;;;;;;;;;4437140;32;20167;-81
2021/06/15 12:49:23;;;;;;;6.10;2.05;;;;;;;;;;4437020;32;20141;-75
2021/06/15 12:51:49;;;;;;;5.72;1.75;;;;;;;;;;4434951;32;20149;-77
2021/06/15 12:54:17;;;;;;;5.25;1.48;;;;;;;;;;4420993;32;20165;-76
2021/06/15 12:56:51;;;;;;;4.45;1.80;;;;;;;;;;4435390;32;20177;-77
2021/06/15 12:59:17;;;;;;;7.20;2.12;;;;;;;;;;4421146;32;20161;-77
2021/06/15 13:01:42;;;;;;;4.83;1.60;;;;;;;;;;4420425;32;20181;-76
2021/06/15 13:04:23;;;;;;;8.37;2.40;;;;;;;;;;4434790;32;20523;-76
2021/06/15 13:06:49;;;;;;;6.85;1.73;;;;;;;;;;4434707;32;20301;-76
2021/06/15 13:09:15;;;;;;;5.37;1.95;;;;;;;;;;4436492;32;20169;-77
2021/06/15 13:11:53;;;;;;;7.15;1.98;;;;;;;;;;4437577;32;20665;-78
2021/06/15 13:14:21;;;;;;;7.50;2.10;;;;;;;;;;4435234;32;20150;-77
2021/06/15 13:16:46;;;;;;;5.93;1.90;;;;;;;;;;4421659;32;20617;-77
2021/06/15 13:19:12;;;;;;;5.12;2.03;;;;;;;;;;4422073;32;20157;-77
2021/06/15 13:21:45;;;;;;;6.57;2.00;;;;;;;;;;4422734;32;20161;-77
2021/06/15 13:24:10;;;;;;;7.68;1.80;;;;;;;;;;4435799;32;20134;-77
2021/06/15 13:26:36;;;;;;;6.18;2.00;;;;;;;;;;4427570;32;20195;-76
2021/06/15 13:29:01;;;;;;;5.47;1.67;;;;;;;;;;4424103;32;20171;-76
2021/06/15 13:31:26;;;;;;;4.47;1.90;;;;;;;;;;4406913;32;20303;-78
2021/06/15 13:34:05;;;;;;;6.65;2.12;;;;;;;;;;4420076;32;20156;-77
2021/06/15 13:36:30;;;;;;;7.50;1.95;;;;;;;;;;4432567;32;20165;-78
2021/06/15 13:39:05;;;;;;;9.25;2.45;;;;;;;;;;4423312;32;20162;-77
2021/06/15 13:41:30;;;;;;;5.95;2.00;;;;;;;;;;4438489;32;20133;-77
2021/06/15 13:43:56;;;;;;;6.73;2.23;;;;;;;;;;4435507;32;20205;-77
2021/06/15 13:46:21;;;;;;;14.02;3.42;;;;;;;;;;4423297;32;20633;-78
2021/06/15 13:48:46;;;;;;;7.03;2.20;;;;;;;;;;4436905;32;20156;-78
2021/06/15 13:51:15;;;;;;;6.75;2.37;;;;;;;;;;4435809;32;20178;-76
2021/06/15 13:53:40;;;;;;;7.82;2.17;;;;;;;;;;4434437;32;20184;-78
2021/06/15 13:56:05;;;;;;;5.75;2.20;;;;;;;;;;4435770;32;20138;-78
2021/06/15 13:58:30;;;;;;;6.55;2.30;;;;;;;;;;4421964;32;20598;-77
2021/06/15 14:00:55;;;;;;;5.50;2.13;;;;;;;;;;4428472;32;20142;-77
2021/06/15 14:03:21;;;;;;;8.23;2.28;;;;;;;;;;4426502;32;20482;-76
2021/06/15 14:05:47;;;;;;;7.72;2.60;;;;;;;;;;4420907;32;20214;-78
2021/06/15 14:08:12;;;;;;;5.03;2.10;;;;;;;;;;4424030;32;20457;-77
2021/06/15 14:10:38;;;;;;;6.65;2.37;;;;;;;;;;4428393;32;20150;-78
2021/06/15 14:13:03;;;;;;;6.05;2.08;;;;;;;;;;4407434;32;20162;-75
2021/06/15 14:15:28;;;;;;;11.25;2.37;;;;;;;;;;4417860;32;20208;-76
2021/06/15 14:17:54;;;;;;;9.43;2.03;;;;;;;;;;4421122;32;20204;-77
2021/06/15 14:20:21;;;;;;;4.28;1.73;;;;;;;;;;4422665;32;20513;-76
2021/06/15 14:22:48;;;;;;;6.45;2.15;;;;;;;;;;4434851;32;20130;-77
2021/06/15 14:25:14;;;;;;;6.53;1.98;;;;;;;;;;4420718;32;20492;-76
2021/06/15 14:27:40;;;;;;;8.80;2.42;;;;;;;;;;4435042;32;20160;-76
2021/06/15 14:30:07;;;;;;;8.20;3.10;;;;;;;;;;4436104;32;20133;-77
2021/06/15 14:32:32;;;;;;;6.95;2.20;;;;;;;;;;4434898;32;20134;-76
2021/06/15 14:34:57;;;;;;;7.87;2.17;;;;;;;;;;4422635;32;20225;-76
2021/06/15 14:37:23;;;;;;;5.87;2.33;;;;;;;;;;4423215;32;20374;-76
2021/06/15 14:39:48;;;;;;;9.38;3.30;;;;;;;;;;4436625;32;20133;-77
2021/06/15 14:42:13;;;;;;;7.40;2.03;;;;;;;;;;4435448;32;20527;-76
2021/06/15 14:44:38;;;;;;;7.00;2.40;;;;;;;;;;4421515;32;20185;-76
2021/06/15 14:47:05;;;;;;;8.40;2.22;;;;;;;;;;4435111;32;20173;-77